Time;durP1;ratioP1;P1;durP2;ratioP2;P2;SDS_P1;SDS_P2;PMS_P1;PMS_P2;Temp;Humidity;BMP_temperature;BMP_pressure;BME280_temperature;BME280_humidity;BME280_pressure;Samples;Min_cycle;Max_cycle;Signal;HPM_P1;HPM_P2
2020/12/05 00:01:55;;;;;;;9.23;2.60;;;10.40;99.90;;;;;;5122958;27;20074;-56
2020/12/05 00:04:59;;;;;;;9.18;4.22;;;10.40;99.90;;;;;;5121992;27;20054;-58
2020/12/05 00:08:03;;;;;;;6.65;2.50;;;10.50;99.90;;;;;;5119117;27;20046;-53
2020/12/05 00:11:07;;;;;;;11.95;2.78;;;10.60;99.90;;;;;;5131948;27;20097;-59
2020/12/05 00:14:12;;;;;;;11.40;5.18;;;10.60;99.90;;;;;;5132352;27;20038;-56
2020/12/05 00:17:16;;;;;;;18.60;8.45;;;10.60;99.90;;;;;;5132352;27;20512;-58
2020/12/05 00:20:21;;;;;;;21.08;7.88;;;10.50;99.90;;;;;;5111841;28;20051;-56
2020/12/05 00:23:25;;;;;;;7.05;3.30;;;10.50;99.90;;;;;;5119600;27;20520;-58
2020/12/05 00:26:29;;;;;;;13.02;4.13;;;10.50;99.90;;;;;;5132467;27;20058;-56
2020/12/05 00:29:33;;;;;;;17.15;6.38;;;10.50;99.90;;;;;;5131824;27;20050;-54
2020/12/05 00:32:37;;;;;;;17.20;5.68;;;10.60;99.90;;;;;;5132560;27;20521;-53
2020/12/05 00:35:41;;;;;;;8.02;3.30;;;10.60;99.90;;;;;;5132444;27;20034;-54
2020/12/05 00:38:46;;;;;;;10.52;3.22;;;10.70;99.90;;;;;;5127103;27;20042;-56
2020/12/05 00:41:55;;;;;;;9.27;3.67;;;10.60;99.90;;;;;;5131614;27;20046;-59
2020/12/05 00:45:00;;;;;;;13.27;4.47;;;10.60;99.90;;;;;;5132044;27;20049;-58
2020/12/05 00:48:04;;;;;;;12.52;4.97;;;10.60;99.90;;;;;;5131511;27;20408;-57
2020/12/05 00:51:12;;;;;;;11.13;4.40;;;10.60;99.90;;;;;;5131355;27;20046;-56
2020/12/05 00:54:20;;;;;;;15.00;5.70;;;10.60;99.90;;;;;;5131079;27;20038;-58
2020/12/05 00:57:28;;;;;;;6.90;2.80;;;10.60;99.90;;;;;;5118184;27;20058;-57
2020/12/05 01:00:32;;;;;;;13.63;3.20;;;10.60;99.90;;;;;;5130568;27;20057;-56
2020/12/05 01:03:36;;;;;;;7.65;2.95;;;10.60;99.90;;;;;;5131438;27;20050;-56
2020/12/05 01:06:44;;;;;;;6.97;1.77;;;10.60;99.90;;;;;;5110759;28;20517;-59
2020/12/05 01:09:48;;;;;;;6.80;2.25;;;10.60;99.90;;;;;;5117297;27;20476;-53
2020/12/05 01:12:53;;;;;;;4.93;1.42;;;10.50;99.90;;;;;;5130824;27;20042;-55
2020/12/05 01:15:57;;;;;;;4.45;1.80;;;10.50;99.90;;;;;;5130795;27;20504;-53
2020/12/05 01:19:01;;;;;;;3.85;1.58;;;10.50;99.90;;;;;;5126024;27;20034;-52
2020/12/05 01:22:04;;;;;;;3.45;1.65;;;10.50;99.90;;;;;;5126547;27;20054;-57
2020/12/05 01:25:09;;;;;;;4.43;1.52;;;10.50;99.90;;;;;;5115385;27;20042;-55
2020/12/05 01:28:13;;;;;;;8.05;2.50;;;10.40;99.90;;;;;;5119791;27;20046;-56
2020/12/05 01:31:17;;;;;;;4.35;1.80;;;10.40;99.90;;;;;;5109403;28;20042;-57
2020/12/05 01:34:21;;;;;;;4.05;1.70;;;10.50;99.90;;;;;;5114009;27;20402;-56
2020/12/05 01:37:25;;;;;;;10.80;3.00;;;10.50;99.90;;;;;;5114262;27;20042;-57
2020/12/05 01:40:29;;;;;;;7.00;2.20;;;10.60;99.90;;;;;;5109163;28;20533;-56
2020/12/05 01:43:34;;;;;;;4.38;1.38;;;10.50;99.90;;;;;;5109809;28;20050;-56
2020/12/05 01:46:40;;;;;;;5.22;1.50;;;10.60;99.90;;;;;;5109786;28;20047;-54
2020/12/05 01:49:44;;;;;;;3.53;0.95;;;10.60;99.90;;;;;;5120639;27;20054;-53
2020/12/05 01:52:50;;;;;;;11.43;1.45;;;10.60;99.90;;;;;;5123785;27;20050;-53
2020/12/05 01:55:54;;;;;;;6.53;1.90;;;10.60;99.90;;;;;;5109116;28;20501;-56
2020/12/05 01:58:59;;;;;;;3.65;1.30;;;10.60;99.90;;;;;;5109386;28;20536;-54
2020/12/05 02:02:04;;;;;;;2.67;1.30;;;10.60;99.90;;;;;;5109362;28;20035;-53
2020/12/05 02:05:13;;;;;;;4.45;1.52;;;10.60;99.90;;;;;;5109399;28;20058;-58
2020/12/05 02:08:27;;;;;;;8.32;1.35;;;10.60;99.90;;;;;;5109200;28;20046;-57
2020/12/05 02:11:40;;;;;;;4.40;1.20;;;10.60;99.90;;;;;;5109394;28;20058;-58
2020/12/05 02:14:46;;;;;;;3.78;1.10;;;10.50;99.90;;;;;;5113754;28;20054;-57
2020/12/05 02:18:00;;;;;;;5.35;2.15;;;10.50;99.90;;;;;;5123751;27;20120;-56
2020/12/05 02:21:05;;;;;;;2.30;1.40;;;10.50;99.90;;;;;;5123276;27;20050;-57
2020/12/05 02:24:10;;;;;;;6.35;1.95;;;10.50;99.90;;;;;;5113613;28;20047;-58
2020/12/05 02:27:15;;;;;;;7.97;1.80;;;10.50;99.90;;;;;;5127557;27;20038;-57
2020/12/05 02:30:19;;;;;;;6.00;1.90;;;10.50;99.90;;;;;;5112897;28;20051;-57
2020/12/05 02:33:23;;;;;;;5.88;1.60;;;10.50;99.90;;;;;;5113167;28;20047;-56
2020/12/05 02:36:32;;;;;;;5.07;1.70;;;10.50;99.90;;;;;;5113211;28;20034;-56
2020/12/05 02:39:41;;;;;;;3.42;1.90;;;10.50;99.90;;;;;;5112721;28;20050;-56
2020/12/05 02:42:45;;;;;;;4.93;1.73;;;10.60;99.90;;;;;;5112972;28;20398;-56
2020/12/05 02:45:49;;;;;;;1.55;0.60;;;10.60;99.90;;;;;;5112595;28;20126;-53
2020/12/05 02:48:53;;;;;;;4.65;1.15;;;10.50;99.90;;;;;;5127539;27;20042;-58
2020/12/05 02:51:57;;;;;;;2.40;1.35;;;10.50;99.90;;;;;;5112511;28;20540;-56
2020/12/05 02:55:04;;;;;;;5.63;2.20;;;10.60;99.90;;;;;;5112059;28;20042;-59
2020/12/05 02:58:08;;;;;;;7.05;2.05;;;10.50;99.90;;;;;;5112854;28;20031;-53
2020/12/05 03:01:13;;;;;;;7.68;3.25;;;10.50;99.90;;;;;;5112085;28;20513;-53
2020/12/05 03:04:17;;;;;;;7.88;1.52;;;10.50;99.90;;;;;;5112840;28;20050;-53
2020/12/05 03:07:21;;;;;;;7.25;2.85;;;10.50;99.90;;;;;;5112786;28;20047;-52
2020/12/05 03:10:25;;;;;;;7.00;2.97;;;10.60;99.90;;;;;;5112075;28;20545;-52
2020/12/05 03:13:29;;;;;;;6.75;1.80;;;10.50;99.90;;;;;;5112775;28;20047;-51
2020/12/05 03:16:34;;;;;;;6.80;1.25;;;10.40;99.90;;;;;;5117333;27;20043;-52
2020/12/05 03:19:38;;;;;;;7.95;1.73;;;10.40;99.90;;;;;;5126565;27;20046;-57
2020/12/05 03:23:25;;;;;;;9.50;3.58;;;10.30;99.90;;;;;;5112156;28;20050;-55
2020/12/05 03:26:30;;;;;;;9.48;3.40;;;10.40;99.90;;;;;;5124680;27;20046;-57
2020/12/05 03:29:37;;;;;;;5.07;1.20;;;10.40;99.90;;;;;;5122605;27;20050;-57
2020/12/05 03:32:43;;;;;;;4.47;1.20;;;10.40;99.90;;;;;;5112368;28;20046;-54
2020/12/05 03:35:47;;;;;;;7.25;1.23;;;10.50;99.90;;;;;;5111891;28;20035;-55
2020/12/05 03:38:53;;;;;;;2.33;1.00;;;10.50;99.90;;;;;;5126808;27;20042;-52
2020/12/05 03:41:57;;;;;;;11.40;3.00;;;10.40;99.90;;;;;;5111856;28;20069;-57
2020/12/05 03:45:01;;;;;;;8.35;1.50;;;10.50;99.90;;;;;;5112752;28;20437;-57
2020/12/05 03:48:06;;;;;;;4.53;1.95;;;10.50;99.90;;;;;;5115025;27;20033;-58
2020/12/05 03:51:11;;;;;;;10.38;1.95;;;10.50;99.90;;;;;;5110952;27;20221;-58
2020/12/05 03:54:15;;;;;;;7.03;1.77;;;10.50;99.90;;;;;;5123447;27;20046;-57
2020/12/05 03:57:19;;;;;;;5.43;1.88;;;10.50;99.90;;;;;;5132540;27;20401;-56
2020/12/05 04:00:23;;;;;;;7.68;1.70;;;10.50;99.90;;;;;;5132106;27;20065;-52
2020/12/05 04:03:27;;;;;;;7.07;1.77;;;10.50;99.90;;;;;;5132523;27;20042;-56
2020/12/05 04:06:31;;;;;;;9.95;2.53;;;10.50;99.90;;;;;;5120954;27;20042;-52
2020/12/05 04:09:35;;;;;;;5.20;2.10;;;10.60;99.90;;;;;;5132367;27;20043;-53
2020/12/05 04:12:41;;;;;;;4.47;1.27;;;10.70;99.90;;;;;;5131974;27;20046;-55
2020/12/05 04:15:46;;;;;;;7.38;2.00;;;10.70;99.90;;;;;;5132436;27;20520;-58
2020/12/05 04:18:50;;;;;;;3.67;1.10;;;10.70;99.90;;;;;;5132507;27;20042;-56
2020/12/05 04:21:55;;;;;;;5.40;1.17;;;10.70;99.90;;;;;;5131291;27;20066;-59
2020/12/05 04:24:59;;;;;;;3.15;1.30;;;10.80;99.90;;;;;;5132359;27;20046;-56
2020/12/05 04:28:03;;;;;;;3.05;0.90;;;10.70;99.90;;;;;;5131582;27;20408;-58
2020/12/05 04:31:07;;;;;;;5.03;1.50;;;10.70;99.90;;;;;;5131309;27;20409;-56
2020/12/05 04:34:11;;;;;;;2.63;1.17;;;10.60;99.90;;;;;;5131524;27;20046;-54
2020/12/05 04:37:15;;;;;;;3.53;0.80;;;10.70;99.90;;;;;;5120613;27;20409;-55
2020/12/05 04:40:21;;;;;;;2.67;0.80;;;10.60;99.90;;;;;;5117470;27;20042;-58
2020/12/05 04:43:25;;;;;;;4.03;0.70;;;10.50;99.90;;;;;;5131427;27;20046;-57
2020/12/05 04:46:33;;;;;;;2.58;1.38;;;10.60;99.90;;;;;;5131680;27;20038;-57
2020/12/05 04:49:38;;;;;;;5.82;1.73;;;10.70;99.90;;;;;;5131841;27;20046;-56
2020/12/05 04:52:49;;;;;;;8.25;2.03;;;10.70;99.90;;;;;;5120745;27;20042;-53
2020/12/05 04:55:57;;;;;;;12.45;3.45;;;10.80;99.90;;;;;;5131400;27;20504;-59
2020/12/05 04:59:04;;;;;;;11.27;3.55;;;10.90;99.90;;;;;;5130954;27;20113;-54
2020/12/05 05:02:10;;;;;;;15.02;5.18;;;11.10;99.90;;;;;;5130205;27;20046;-58
2020/12/05 05:05:15;;;;;;;9.20;2.53;;;11.10;99.90;;;;;;5130684;27;20512;-58
2020/12/05 05:08:19;;;;;;;14.27;2.85;;;11.10;99.90;;;;;;5130713;27;20042;-55
2020/12/05 05:11:26;;;;;;;6.32;3.03;;;11.10;99.90;;;;;;5129986;27;20050;-56
2020/12/05 05:14:32;;;;;;;4.13;2.10;;;11.10;99.90;;;;;;5131012;27;20050;-54
2020/12/05 05:17:48;;;;;;;7.97;2.40;;;11.20;99.90;;;;;;5130507;27;20038;-58
2020/12/05 05:20:52;;;;;;;10.40;2.50;;;11.30;99.90;;;;;;5130534;27;20034;-55
2020/12/05 05:23:58;;;;;;;9.93;2.80;;;11.20;99.90;;;;;;5130967;27;20045;-55
2020/12/05 05:27:08;;;;;;;15.55;3.50;;;11.20;99.90;;;;;;5130604;27;20046;-56
2020/12/05 05:30:14;;;;;;;6.70;2.65;;;11.10;99.90;;;;;;5130568;27;20042;-52
2020/12/05 05:33:19;;;;;;;12.07;3.95;;;11.10;99.90;;;;;;5129797;27;20041;-56
2020/12/05 05:36:26;;;;;;;14.23;3.47;;;11.10;99.90;;;;;;5115013;27;20050;-58
2020/12/05 05:39:49;;;;;;;13.98;3.10;;;11.00;99.90;;;;;;5113387;27;20034;-55
2020/12/05 05:42:54;;;;;;;18.20;5.10;;;11.00;99.90;;;;;;5121798;27;20054;-55
2020/12/05 05:45:58;;;;;;;11.18;4.03;;;10.90;99.90;;;;;;5130522;27;20046;-53
2020/12/05 05:49:04;;;;;;;13.15;4.00;;;11.00;99.90;;;;;;5130931;27;20045;-58
2020/12/05 05:52:08;;;;;;;8.73;2.88;;;11.00;99.90;;;;;;5129978;27;20050;-57
2020/12/05 05:55:12;;;;;;;10.93;4.07;;;11.00;99.90;;;;;;5130756;27;20038;-59
2020/12/05 05:58:17;;;;;;;6.82;3.10;;;11.00;99.90;;;;;;5130783;27;20413;-56
2020/12/05 06:01:27;;;;;;;14.85;3.33;;;10.90;99.90;;;;;;5130435;27;20050;-57
2020/12/05 06:04:35;;;;;;;13.10;3.33;;;10.90;99.90;;;;;;5130672;28;20054;-56
2020/12/05 06:07:43;;;;;;;9.18;3.35;;;10.90;99.90;;;;;;5130895;28;20420;-58
2020/12/05 06:10:57;;;;;;;6.15;2.30;;;11.00;99.90;;;;;;5119547;28;20132;-53
2020/12/05 06:14:02;;;;;;;9.52;3.40;;;11.10;99.90;;;;;;5130147;28;20038;-53
2020/12/05 06:17:08;;;;;;;9.32;2.65;;;11.10;99.90;;;;;;5130375;28;20042;-56
2020/12/05 06:20:14;;;;;;;6.60;3.05;;;11.30;99.90;;;;;;5126928;28;20046;-55
2020/12/05 06:23:25;;;;;;;12.25;4.80;;;11.30;99.90;;;;;;5129700;28;20050;-58
2020/12/05 06:26:33;;;;;;;7.68;2.83;;;11.30;99.90;;;;;;5130232;28;20117;-53
2020/12/05 06:29:38;;;;;;;14.70;3.92;;;11.30;99.90;;;;;;5120449;28;20445;-54
2020/12/05 06:32:48;;;;;;;8.43;2.67;;;11.30;99.90;;;;;;5129405;28;20046;-53
2020/12/05 06:35:52;;;;;;;10.57;2.95;;;11.20;99.90;;;;;;5129938;28;20034;-56
2020/12/05 06:39:13;;;;;;;5.90;2.00;;;11.20;99.90;;;;;;5129705;28;20038;-54
2020/12/05 06:42:19;;;;;;;11.07;3.83;;;11.20;99.90;;;;;;5129093;28;20354;-54
2020/12/05 06:59:39;;;;;;;11.98;2.80;;;10.90;99.90;;;;;;5120238;27;20042;-56
2020/12/05 07:02:57;;;;;;;7.35;2.60;;;10.90;99.90;;;;;;5115641;27;20078;-56
2020/12/05 07:06:01;;;;;;;10.00;3.42;;;10.90;99.90;;;;;;5114844;27;20607;-56
2020/12/05 07:09:05;;;;;;;4.65;2.55;;;10.90;99.90;;;;;;5117414;27;20038;-59
2020/12/05 07:12:17;;;;;;;11.20;2.58;;;11.00;99.90;;;;;;5122686;27;20046;-54
2020/12/05 07:15:25;;;;;;;9.20;2.25;;;11.00;99.90;;;;;;5121206;27;20038;-56
2020/12/05 07:18:29;;;;;;;5.60;1.90;;;11.00;99.90;;;;;;5130638;27;20050;-56
2020/12/05 07:21:33;;;;;;;3.42;1.50;;;11.00;99.90;;;;;;5121187;27;20042;-53
2020/12/05 07:24:37;;;;;;;10.30;2.63;;;11.00;99.90;;;;;;5130882;27;20053;-55
2020/12/05 07:27:44;;;;;;;6.43;2.05;;;10.90;99.90;;;;;;5116945;27;20532;-56
2020/12/05 07:30:50;;;;;;;3.92;1.80;;;10.90;99.90;;;;;;5113557;27;20042;-54
2020/12/05 07:33:57;;;;;;;7.15;1.95;;;10.90;99.90;;;;;;5115221;27;20054;-54
2020/12/05 07:37:01;;;;;;;8.00;1.90;;;10.80;99.90;;;;;;5115515;27;20664;-56
2020/12/05 07:40:08;;;;;;;6.45;1.92;;;10.70;99.90;;;;;;5112860;27;20046;-58
2020/12/05 07:43:20;;;;;;;4.57;1.80;;;10.80;99.90;;;;;;5125861;27;20050;-56
2020/12/05 07:46:25;;;;;;;6.45;1.75;;;10.70;99.90;;;;;;5132745;27;20839;-54
2020/12/05 07:49:29;;;;;;;8.48;2.33;;;10.70;99.90;;;;;;5124905;27;20125;-56
2020/12/05 07:52:33;;;;;;;8.90;2.65;;;10.70;99.90;;;;;;5124640;27;20039;-57
2020/12/05 07:55:37;;;;;;;12.02;2.95;;;10.80;99.90;;;;;;5122150;27;20042;-54
2020/12/05 07:58:48;;;;;;;14.60;3.88;;;10.90;99.90;;;;;;5120145;27;20056;-54
2020/12/05 08:02:12;;;;;;;11.25;2.72;;;11.10;99.90;;;;;;5129879;27;20515;-58
2020/12/05 08:05:28;;;;;;;10.10;2.67;;;11.30;99.90;;;;;;5126793;27;20061;-58
2020/12/05 08:08:35;;;;;;;7.47;2.88;;;11.40;99.90;;;;;;5124220;27;20523;-60
2020/12/05 08:11:45;;;;;;;9.23;2.95;;;11.50;99.90;;;;;;5121989;27;20035;-59
2020/12/05 08:14:49;;;;;;;12.70;2.65;;;11.50;99.90;;;;;;5125296;27;20058;-60
2020/12/05 08:17:55;;;;;;;11.18;3.28;;;11.40;99.90;;;;;;5128998;27;20038;-61
2020/12/05 08:21:01;;;;;;;10.88;3.05;;;11.50;99.90;;;;;;5126674;27;20046;-61
2020/12/05 08:24:09;;;;;;;7.75;1.90;;;11.50;99.90;;;;;;5128422;27;20042;-60
2020/12/05 08:27:14;;;;;;;6.32;2.30;;;11.60;99.90;;;;;;5131885;27;20033;-59
2020/12/05 08:30:18;;;;;;;8.32;1.88;;;11.60;99.90;;;;;;5129057;27;20046;-61
2020/12/05 08:33:23;;;;;;;13.10;3.00;;;11.60;99.90;;;;;;5131112;27;20464;-60
2020/12/05 08:36:32;;;;;;;7.65;2.60;;;11.60;99.90;;;;;;5132118;27;20679;-58
2020/12/05 08:39:41;;;;;;;9.07;2.70;;;11.60;99.90;;;;;;5127069;27;20042;-60
2020/12/05 08:42:49;;;;;;;7.75;2.78;;;11.60;99.90;;;;;;5134573;27;20054;-58
2020/12/05 08:45:54;;;;;;;9.63;2.67;;;11.60;99.90;;;;;;5132094;27;20049;-60
2020/12/05 08:48:58;;;;;;;13.35;2.78;;;11.60;99.90;;;;;;5123000;27;20057;-58
2020/12/05 08:52:03;;;;;;;15.40;3.15;;;11.70;99.90;;;;;;5127865;27;20540;-62
2020/12/05 08:55:08;;;;;;;11.60;3.35;;;11.70;99.90;;;;;;5130373;27;20652;-60
2020/12/05 08:58:12;;;;;;;11.35;3.22;;;11.70;99.90;;;;;;5126175;27;20412;-60
2020/12/05 09:01:17;;;;;;;13.48;3.20;;;11.80;99.90;;;;;;5133213;27;20043;-58
2020/12/05 09:04:47;;;;;;;12.45;3.03;;;11.80;99.90;;;;;;5129605;27;20042;-60
2020/12/05 09:08:00;;;;;;;10.15;2.90;;;11.90;99.90;;;;;;5130230;27;20073;-58
2020/12/05 09:11:04;;;;;;;14.70;2.88;;;11.90;99.90;;;;;;5127885;27;20038;-55
2020/12/05 09:14:09;;;;;;;12.00;3.33;;;11.90;99.90;;;;;;5128329;27;20392;-60
2020/12/05 09:17:34;;;;;;;11.10;3.08;;;11.90;99.90;;;;;;5129392;27;20042;-59
2020/12/05 09:20:41;;;;;;;11.57;2.92;;;11.90;99.90;;;;;;5129173;27;20072;-55
2020/12/05 09:24:04;;;;;;;12.82;2.80;;;12.00;99.90;;;;;;5129704;27;20050;-59
2020/12/05 09:27:08;;;;;;;13.50;2.92;;;12.10;99.90;;;;;;5131536;27;20049;-60
2020/12/05 09:30:13;;;;;;;13.27;3.70;;;12.20;99.90;;;;;;5119688;27;20046;-61
2020/12/05 09:33:18;;;;;;;16.00;3.15;;;12.20;99.90;;;;;;5124164;27;20039;-58
2020/12/05 09:36:22;;;;;;;13.30;3.03;;;12.20;99.90;;;;;;5125101;27;20425;-59
2020/12/05 09:39:26;;;;;;;14.70;3.47;;;12.30;99.90;;;;;;5122737;27;20049;-58
2020/12/05 09:42:32;;;;;;;13.93;2.80;;;12.40;99.90;;;;;;5133633;27;20500;-59
2020/12/05 09:45:36;;;;;;;16.55;3.88;;;12.40;99.90;;;;;;5129144;27;20046;-57
2020/12/05 09:48:41;;;;;;;17.35;3.42;;;12.50;99.90;;;;;;5122907;27;20053;-57
2020/12/05 09:51:45;;;;;;;12.48;2.55;;;12.60;99.90;;;;;;5126850;27;20112;-56
2020/12/05 09:54:49;;;;;;;10.50;2.70;;;12.60;99.90;;;;;;5125342;27;20060;-60
2020/12/05 09:57:53;;;;;;;17.25;3.25;;;12.60;99.90;;;;;;5127987;27;20050;-59
2020/12/05 10:00:57;;;;;;;12.80;3.42;;;12.50;99.90;;;;;;5121143;27;20050;-58
2020/12/05 10:04:03;;;;;;;15.23;3.03;;;12.40;99.90;;;;;;5120297;27;20050;-59
2020/12/05 10:07:07;;;;;;;13.70;2.40;;;12.40;99.90;;;;;;5124766;27;20045;-60
2020/12/05 10:10:13;;;;;;;18.98;3.83;;;12.40;99.90;;;;;;5125106;27;20061;-58
2020/12/05 10:13:17;;;;;;;16.33;2.50;;;12.50;99.90;;;;;;5126552;27;20034;-55
2020/12/05 10:16:22;;;;;;;13.20;3.10;;;12.50;99.90;;;;;;5130348;27;20057;-55
2020/12/05 10:19:27;;;;;;;17.30;3.67;;;12.30;99.90;;;;;;5121399;27;20054;-59
2020/12/05 10:22:32;;;;;;;14.65;3.03;;;12.30;99.90;;;;;;5128223;27;20050;-58
2020/12/05 10:25:36;;;;;;;21.02;7.95;;;12.30;99.90;;;;;;5134216;27;20049;-58
2020/12/05 10:28:40;;;;;;;20.38;3.75;;;12.30;99.90;;;;;;5125050;27;21140;-60
2020/12/05 10:31:48;;;;;;;29.88;4.05;;;12.40;99.90;;;;;;5128020;27;20062;-60
2020/12/05 10:34:52;;;;;;;13.75;2.78;;;12.40;99.90;;;;;;5130214;27;20569;-60
2020/12/05 10:37:57;;;;;;;15.65;3.75;;;12.30;99.90;;;;;;5130156;27;20593;-59
2020/12/05 10:41:02;;;;;;;13.57;3.17;;;12.30;99.90;;;;;;5132278;27;20037;-60
2020/12/05 10:44:09;;;;;;;16.55;4.13;;;12.30;99.90;;;;;;5130816;27;20046;-60
2020/12/05 10:47:14;;;;;;;11.07;2.60;;;12.50;99.90;;;;;;5131222;27;20050;-59
2020/12/05 10:50:20;;;;;;;13.25;3.60;;;12.60;99.90;;;;;;5126007;27;20046;-59
2020/12/05 10:53:26;;;;;;;12.45;3.10;;;12.70;99.90;;;;;;5133434;27;20780;-59
2020/12/05 10:56:30;;;;;;;15.18;3.22;;;12.80;99.90;;;;;;5138438;27;20376;-58
2020/12/05 10:59:35;;;;;;;17.70;3.22;;;12.90;99.90;;;;;;5120820;27;20050;-56
2020/12/05 11:02:40;;;;;;;8.35;3.25;;;13.00;99.90;;;;;;5125611;27;20552;-59
2020/12/05 11:05:44;;;;;;;10.55;3.20;;;13.10;99.90;;;;;;5129399;27;20401;-58
2020/12/05 11:08:49;;;;;;;13.07;2.97;;;13.30;99.90;;;;;;5127135;27;21529;-59
2020/12/05 11:11:53;;;;;;;17.90;3.28;;;13.30;99.90;;;;;;5126704;27;20053;-55
2020/12/05 11:14:57;;;;;;;12.32;2.38;;;13.40;99.90;;;;;;5126083;27;20532;-59
2020/12/05 11:18:01;;;;;;;11.93;2.22;;;13.40;99.90;;;;;;5124406;27;20034;-58
2020/12/05 11:21:06;;;;;;;14.45;3.22;;;13.40;99.90;;;;;;5126051;27;20034;-57
2020/12/05 11:24:12;;;;;;;8.68;2.72;;;13.50;99.90;;;;;;5124720;27;20054;-59
2020/12/05 11:27:16;;;;;;;12.70;2.58;;;13.60;99.90;;;;;;5127813;27;20520;-57
2020/12/05 11:30:20;;;;;;;11.40;2.25;;;13.70;99.90;;;;;;5123915;27;20042;-57
2020/12/05 11:33:24;;;;;;;12.68;3.15;;;13.60;99.90;;;;;;5130980;27;20058;-57
2020/12/05 11:36:29;;;;;;;19.65;6.30;;;13.50;99.90;;;;;;5126967;27;20496;-59
2020/12/05 11:39:33;;;;;;;19.13;4.53;;;13.40;99.90;;;;;;5116280;27;20043;-54
2020/12/05 11:42:37;;;;;;;13.95;4.13;;;13.50;99.90;;;;;;5125167;27;20057;-56
2020/12/05 11:45:42;;;;;;;31.27;15.15;;;13.40;99.90;;;;;;5118433;27;20050;-54
2020/12/05 11:48:47;;;;;;;15.73;5.03;;;13.40;99.90;;;;;;5132465;27;21086;-56
2020/12/05 11:51:52;;;;;;;15.55;6.13;;;13.70;99.90;;;;;;5122371;27;20050;-55
2020/12/05 11:54:56;;;;;;;28.00;7.00;;;14.10;99.90;;;;;;5132456;27;20046;-56
2020/12/05 11:58:01;;;;;;;24.48;4.07;;;14.40;99.90;;;;;;5132135;27;20432;-58
2020/12/05 12:01:06;;;;;;;15.98;3.95;;;14.50;99.90;;;;;;5132162;27;20513;-52
2020/12/05 12:04:10;;;;;;;11.77;3.22;;;14.70;99.90;;;;;;5132503;27;20046;-54
2020/12/05 12:07:15;;;;;;;17.95;3.60;;;14.70;99.90;;;;;;5132149;27;20050;-56
2020/12/05 12:10:19;;;;;;;16.20;4.10;;;14.90;99.90;;;;;;5131845;27;20046;-52
2020/12/05 12:13:23;;;;;;;15.40;7.10;;;15.20;99.90;;;;;;5131671;27;20042;-54
2020/12/05 12:16:27;;;;;;;15.85;3.45;;;14.90;99.90;;;;;;5132162;27;20038;-51
2020/12/05 12:19:31;;;;;;;14.55;2.95;;;14.90;99.90;;;;;;5131894;27;20050;-52
2020/12/05 12:22:37;;;;;;;17.67;3.15;;;14.90;99.90;;;;;;5131945;27;20512;-53
2020/12/05 12:25:42;;;;;;;21.63;4.20;;;15.00;99.90;;;;;;5131807;27;20062;-57
2020/12/05 12:28:46;;;;;;;16.67;3.63;;;15.00;99.90;;;;;;5131570;27;20046;-52
2020/12/05 12:31:54;;;;;;;17.48;3.20;;;15.00;99.90;;;;;;5130432;27;20046;-52
2020/12/05 12:34:59;;;;;;;15.88;3.28;;;14.90;99.90;;;;;;5131466;27;20428;-51
2020/12/05 12:38:03;;;;;;;12.40;3.53;;;14.90;99.90;;;;;;5131285;27;20054;-52
2020/12/05 12:41:07;;;;;;;14.85;3.72;;;14.90;99.90;;;;;;5120787;27;20042;-59
2020/12/05 12:44:12;;;;;;;10.50;3.15;;;14.90;99.90;;;;;;5131298;27;20499;-55
2020/12/05 12:50:31;;;;;;;15.30;3.38;;;15.10;99.90;;;;;;5131108;27;20769;-53
2020/12/05 12:53:39;;;;;;;18.50;3.30;;;15.10;99.90;;;;;;5122033;27;20413;-57
2020/12/05 12:56:43;;;;;;;11.98;2.95;;;15.20;99.90;;;;;;5131221;27;20050;-51
2020/12/05 12:59:48;;;;;;;19.63;5.32;;;15.20;99.90;;;;;;5131390;27;20046;-53
2020/12/05 13:02:54;;;;;;;18.10;3.83;;;15.10;99.90;;;;;;5131089;27;20046;-52
2020/12/05 13:05:59;;;;;;;19.92;3.38;;;15.20;99.90;;;;;;5131209;27;20050;-56
2020/12/05 13:09:04;;;;;;;17.42;3.45;;;15.30;99.90;;;;;;5131034;27;20092;-55
2020/12/05 13:12:08;;;;;;;15.98;3.28;;;15.20;99.90;;;;;;5120529;27;20046;-53
2020/12/05 13:15:13;;;;;;;15.45;3.20;;;15.60;99.90;;;;;;5131536;27;20038;-57
2020/12/05 13:18:18;;;;;;;16.83;4.00;;;15.70;99.90;;;;;;5129265;27;20038;-52
2020/12/05 13:21:23;;;;;;;15.30;3.90;;;16.20;99.90;;;;;;5130536;27;20046;-53
2020/12/05 13:24:27;;;;;;;17.13;3.03;;;16.30;99.90;;;;;;5131296;27;20371;-52
2020/12/05 13:27:32;;;;;;;14.57;3.25;;;16.00;99.90;;;;;;5131048;27;20606;-52
2020/12/05 13:30:37;;;;;;;12.60;2.78;;;15.80;99.90;;;;;;5131195;27;20065;-55
2020/12/05 13:33:42;;;;;;;9.85;2.90;;;15.70;99.90;;;;;;5129919;27;20043;-52
2020/12/05 13:36:46;;;;;;;23.30;2.85;;;15.10;99.90;;;;;;5131067;27;20054;-52
2020/12/05 13:39:51;;;;;;;11.45;2.95;;;14.60;99.90;;;;;;5130579;27;20046;-52
2020/12/05 13:42:58;;;;;;;13.45;3.20;;;14.50;99.90;;;;;;5121563;27;20053;-53
2020/12/05 13:46:03;;;;;;;14.50;4.07;;;14.60;99.90;;;;;;5131041;27;20058;-54
2020/12/05 13:49:08;;;;;;;17.20;3.20;;;14.40;99.90;;;;;;5130547;27;20058;-51
2020/12/05 13:52:13;;;;;;;23.65;3.70;;;14.50;99.90;;;;;;5130838;27;20041;-55
2020/12/05 13:55:20;;;;;;;19.48;3.75;;;14.30;99.90;;;;;;5121674;27;20038;-54
2020/12/05 13:58:24;;;;;;;12.68;3.75;;;13.70;99.90;;;;;;5130655;27;20046;-58
2020/12/05 14:01:29;;;;;;;22.77;8.05;;;13.50;99.90;;;;;;5130230;27;20042;-57
2020/12/05 14:04:34;;;;;;;25.27;10.40;;;13.40;99.90;;;;;;5130528;27;20487;-53
2020/12/05 14:07:39;;;;;;;11.52;3.45;;;13.30;99.90;;;;;;5130121;27;20054;-53
2020/12/05 14:10:44;;;;;;;23.27;3.63;;;13.40;99.90;;;;;;5129585;28;20054;-52
2020/12/05 14:13:50;;;;;;;15.18;3.20;;;13.50;99.90;;;;;;5119445;28;20046;-57
2020/12/05 14:16:54;;;;;;;17.92;3.75;;;13.40;99.90;;;;;;5130578;28;20050;-54
2020/12/05 14:19:59;;;;;;;22.40;4.07;;;13.30;99.90;;;;;;5129688;28;20042;-54
2020/12/05 14:23:04;;;;;;;17.88;3.28;;;13.20;99.90;;;;;;5130011;28;20050;-56
2020/12/05 14:26:09;;;;;;;16.95;3.90;;;13.10;99.90;;;;;;5129819;28;20422;-55
2020/12/05 14:29:15;;;;;;;19.23;4.10;;;12.90;99.90;;;;;;5119925;28;20042;-56
2020/12/05 14:32:22;;;;;;;15.75;3.92;;;13.00;99.90;;;;;;5118521;28;20052;-56
2020/12/05 14:35:27;;;;;;;16.13;3.67;;;13.00;99.90;;;;;;5115287;28;20097;-53
2020/12/05 14:38:32;;;;;;;14.85;4.53;;;12.90;99.90;;;;;;5117677;28;20046;-56
2020/12/05 14:41:37;;;;;;;16.63;4.00;;;13.00;99.90;;;;;;5112000;28;20035;-58
2020/12/05 14:44:42;;;;;;;13.93;3.47;;;13.10;99.90;;;;;;5115395;28;20043;-56
2020/12/05 14:47:46;;;;;;;12.80;3.30;;;13.10;99.90;;;;;;5113249;28;20055;-56
2020/12/05 14:50:51;;;;;;;19.38;3.83;;;13.20;99.90;;;;;;5111753;28;20042;-53
2020/12/05 14:53:56;;;;;;;28.10;8.88;;;13.20;99.90;;;;;;5110173;28;20039;-55
2020/12/05 14:57:00;;;;;;;28.17;14.82;;;13.20;99.90;;;;;;5112890;28;20533;-54
2020/12/05 15:00:05;;;;;;;29.73;18.13;;;13.30;99.90;;;;;;5110565;28;20051;-55
2020/12/05 15:03:09;;;;;;;17.80;8.40;;;13.30;99.90;;;;;;5118225;28;20066;-53
2020/12/05 15:06:14;;;;;;;19.27;3.30;;;13.50;99.90;;;;;;5111518;28;20374;-55
2020/12/05 15:09:19;;;;;;;16.42;4.38;;;13.70;99.90;;;;;;5118293;28;20398;-51
2020/12/05 15:12:24;;;;;;;14.93;4.13;;;13.90;99.90;;;;;;5117623;28;20505;-53
2020/12/05 15:15:28;;;;;;;19.35;4.55;;;14.10;99.90;;;;;;5118773;28;20042;-53
2020/12/05 15:18:32;;;;;;;21.13;3.03;;;14.30;99.90;;;;;;5111489;28;20046;-57
2020/12/05 15:21:37;;;;;;;20.98;5.10;;;14.40;99.90;;;;;;5115033;27;20042;-54
2020/12/05 15:24:41;;;;;;;15.60;4.88;;;14.50;99.90;;;;;;5130749;27;20054;-56
2020/12/05 15:27:46;;;;;;;23.60;7.53;;;14.60;99.90;;;;;;5117591;27;20054;-52
2020/12/05 15:30:51;;;;;;;13.25;3.50;;;14.70;99.90;;;;;;5122372;27;20043;-51
2020/12/05 15:33:56;;;;;;;11.48;2.70;;;14.60;99.90;;;;;;5117165;27;20051;-55
2020/12/05 15:37:00;;;;;;;15.40;3.60;;;14.70;99.90;;;;;;5115816;27;20046;-56
2020/12/05 15:40:05;;;;;;;13.60;3.33;;;14.60;99.90;;;;;;5117803;27;20062;-52
2020/12/05 15:43:10;;;;;;;13.52;2.55;;;14.60;99.90;;;;;;5117306;27;20057;-51
2020/12/05 15:46:19;;;;;;;16.27;3.25;;;14.40;99.90;;;;;;5120839;27;20038;-57
2020/12/05 15:49:25;;;;;;;15.65;3.25;;;14.10;99.90;;;;;;5124792;27;20049;-54
2020/12/05 15:52:30;;;;;;;14.98;4.30;;;13.70;99.90;;;;;;5128781;27;20057;-57
2020/12/05 15:55:35;;;;;;;18.67;3.80;;;13.40;99.90;;;;;;5125195;27;20045;-59
2020/12/05 15:58:39;;;;;;;10.90;3.38;;;13.40;99.90;;;;;;5130527;27;20516;-53
2020/12/05 16:01:44;;;;;;;12.25;2.92;;;13.50;99.90;;;;;;5125129;27;20046;-53
2020/12/05 16:04:48;;;;;;;14.23;3.17;;;13.70;99.90;;;;;;5128446;27;20816;-58
2020/12/05 16:07:54;;;;;;;21.30;3.55;;;13.80;99.90;;;;;;5125315;27;20038;-59
2020/12/05 16:10:58;;;;;;;15.77;3.63;;;13.70;99.90;;;;;;5124939;27;20046;-56
2020/12/05 16:14:03;;;;;;;15.00;3.60;;;13.60;99.90;;;;;;5125559;27;20043;-56
2020/12/05 16:17:06;;;;;;;16.15;3.50;;;13.80;99.90;;;;;;5126973;27;20045;-57